Time;durP1;ratioP1;P1;durP2;ratioP2;P2;SDS_P1;SDS_P2;PMS_P1;PMS_P2;Temp;Humidity;BMP_temperature;BMP_pressure;BME280_temperature;BME280_humidity;BME280_pressure;Samples;Min_cycle;Max_cycle;Signal;HPM_P1;HPM_P2
2023/11/26 00:01:31;;;;;;;12.00;7.30;;;;;;;-1.73;91.68;95214.44;108666;1273;22532;-75
2023/11/26 00:04:05;;;;;;;12.00;6.70;;;;;;;-1.73;91.72;95208.67;108617;1273;22539;-75
2023/11/26 00:06:34;;;;;;;10.40;6.40;;;;;;;-1.71;92.07;95210.98;108712;1266;22518;-75
2023/11/26 00:09:02;;;;;;;11.00;6.40;;;;;;;-1.71;92.13;95212.50;108607;1274;24850;-75
2023/11/26 00:11:31;;;;;;;12.00;7.10;;;;;;;-1.71;92.01;95215.25;108652;1270;22551;-75
2023/11/26 00:13:59;;;;;;;11.20;7.30;;;;;;;-1.69;92.25;95213.27;108678;1274;25397;-75
2023/11/26 00:16:35;;;;;;;13.20;7.40;;;;;;;-1.69;92.29;95211.87;108643;1275;25398;-75
2023/11/26 00:19:06;;;;;;;10.00;6.90;;;;;;;-1.68;92.34;95211.51;108608;1274;22530;-75
2023/11/26 00:21:34;;;;;;;11.70;6.90;;;;;;;-1.67;92.19;95218.03;108646;1274;24203;-75
2023/11/26 00:24:02;;;;;;;11.50;6.60;;;;;;;-1.64;92.56;95216.88;108637;1275;22528;-75
2023/11/26 00:26:31;;;;;;;11.40;6.00;;;;;;;-1.62;92.69;95213.52;108643;1269;22499;-75
2023/11/26 00:29:00;;;;;;;9.60;6.00;;;;;;;-1.60;92.69;95215.17;108696;1274;22524;-75
2023/11/26 00:31:28;;;;;;;;;;;;;;;-1.59;92.63;95211.39;108644;1262;22691;-75
2023/11/26 00:33:56;;;;;;;11.00;6.50;;;;;;;-1.59;92.63;95215.14;108646;1274;22546;-76
2023/11/26 00:36:24;;;;;;;10.30;6.00;;;;;;;-1.58;92.60;95213.84;108619;1274;22577;-75
2023/11/26 00:38:53;;;;;;;8.00;5.10;;;;;;;-1.57;92.26;95216.10;108637;1274;22551;-75
2023/11/26 00:41:21;;;;;;;10.00;6.00;;;;;;;-1.57;92.47;95218.80;108640;1267;22485;-75
2023/11/26 00:43:49;;;;;;;7.60;5.00;;;;;;;-1.54;92.41;95221.05;108599;1274;25456;-75
2023/11/26 00:46:17;;;;;;;9.10;5.00;;;;;;;-1.53;92.45;95223.97;108625;1270;22538;-75
2023/11/26 00:48:46;;;;;;;8.20;4.80;;;;;;;-1.51;92.27;95228.52;108603;1274;22650;-75
2023/11/26 00:51:19;;;;;;;7.00;4.20;;;;;;;-1.49;92.35;95234.84;108644;1274;22655;-75
2023/11/26 00:53:48;;;;;;;10.00;5.30;;;;;;;-1.46;92.61;95235.98;108623;1274;22534;-75
2023/11/26 00:56:17;;;;;;;4.20;2.90;;;;;;;-1.43;92.35;95236.39;108711;1274;22700;-75
2023/11/26 00:58:45;;;;;;;8.10;4.00;;;;;;;-1.40;92.66;95234.78;108601;1251;23032;-75
2023/11/26 01:01:14;;;;;;;14.70;6.20;;;;;;;-1.38;92.83;95233.30;108610;1274;24240;-75
2023/11/26 01:03:42;;;;;;;13.30;6.40;;;;;;;-1.38;92.71;95236.78;108643;1266;22569;-75
2023/11/26 01:06:11;;;;;;;7.40;3.40;;;;;;;-1.38;92.62;95235.48;108612;1274;22550;-75
2023/11/26 01:08:39;;;;;;;11.60;6.20;;;;;;;-1.39;92.75;95228.71;108612;1274;25420;-75
2023/11/26 01:11:13;;;;;;;12.10;5.10;;;;;;;-1.39;92.62;95228.41;108647;1266;23356;-75
2023/11/26 01:13:43;;;;;;;8.10;4.50;;;;;;;-1.40;92.88;95229.38;108671;1274;22547;-75
2023/11/26 01:16:12;;;;;;;12.80;7.00;;;;;;;-1.39;92.83;95233.13;108676;1274;22580;-76
2023/11/26 01:18:40;;;;;;;12.40;6.20;;;;;;;-1.39;93.14;95235.52;108622;1275;22531;-75
2023/11/26 01:21:09;;;;;;;9.90;4.60;;;;;;;-1.37;92.93;95235.08;108626;1269;22707;-75
2023/11/26 01:23:40;;;;;;;12.40;5.70;;;;;;;-1.37;93.22;95233.16;108667;1267;22841;-75
2023/11/26 01:26:10;;;;;;;8.10;4.70;;;;;;;-1.37;93.20;95234.15;108618;1274;22578;-75
2023/11/26 01:28:38;;;;;;;9.90;5.40;;;;;;;-1.37;93.32;95233.42;108619;1270;22528;-76
2023/11/26 01:31:10;;;;;;;8.10;4.60;;;;;;;-1.37;93.20;95233.78;108626;1274;22547;-75
2023/11/26 01:33:39;;;;;;;12.30;5.40;;;;;;;-1.37;93.49;95235.91;108666;1275;24369;-75
2023/11/26 01:36:09;;;;;;;10.90;5.50;;;;;;;-1.38;93.50;95233.66;108658;1270;22990;-75
2023/11/26 01:38:38;;;;;;;9.60;5.20;;;;;;;-1.38;93.71;95235.95;108598;1274;22566;-75
2023/11/26 01:41:07;;;;;;;11.90;7.40;;;;;;;-1.38;93.62;95237.51;108661;1269;25380;-75
2023/11/26 01:43:35;;;;;;;10.40;5.40;;;;;;;-1.40;93.91;95236.81;108658;1274;25300;-75
2023/11/26 01:46:08;;;;;;;12.20;7.20;;;;;;;-1.38;93.97;95237.57;108664;1274;22530;-75
2023/11/26 01:48:37;;;;;;;7.90;5.70;;;;;;;-1.37;94.10;95235.39;108623;1274;22546;-75
2023/11/26 01:51:09;;;;;;;9.70;5.80;;;;;;;-1.36;94.06;95232.96;108648;1274;24373;-75
2023/11/26 01:53:41;;;;;;;10.80;5.30;;;;;;;-1.35;94.37;95232.14;108637;1274;22644;-75
2023/11/26 01:56:10;;;;;;;8.60;5.70;;;;;;;-1.33;94.76;95226.04;108669;1267;22524;-75
2023/11/26 01:58:41;;;;;;;9.10;5.50;;;;;;;-1.31;94.81;95227.00;108628;1267;22737;-75
2023/11/26 02:01:10;;;;;;;9.90;5.80;;;;;;;-1.31;94.48;95225.96;108616;1274;22518;-75
2023/11/26 02:03:38;;;;;;;13.10;7.10;;;;;;;-1.31;94.69;95224.09;108661;1274;25230;-76
2023/11/26 02:06:08;;;;;;;7.40;4.60;;;;;;;-1.30;94.52;95221.97;108621;1275;22737;-75
2023/11/26 02:08:35;;;;;;;;;;;;;;;-1.28;94.41;95224.34;108649;1274;25335;-76
2023/11/26 02:11:04;;;;;;;10.60;4.80;;;;;;;-1.26;94.31;95220.44;108612;1275;22539;-75
2023/11/26 02:13:42;;;;;;;11.30;6.90;;;;;;;-1.24;94.48;95221.15;108637;1267;22763;-75
2023/11/26 02:16:11;;;;;;;8.20;5.70;;;;;;;-1.21;94.04;95223.52;108631;1275;22508;-76
2023/11/26 02:18:39;;;;;;;10.50;6.10;;;;;;;-1.21;94.02;95218.73;108651;1269;22520;-75
2023/11/26 02:21:08;;;;;;;9.40;6.00;;;;;;;-1.20;93.93;95224.48;108633;1269;24745;-75
2023/11/26 02:23:37;;;;;;;11.60;6.50;;;;;;;-1.20;94.22;95211.88;108633;1270;22543;-75
2023/11/26 02:26:09;;;;;;;8.30;5.30;;;;;;;-1.20;94.14;95227.01;108626;1274;22561;-75
2023/11/26 02:28:38;;;;;;;10.70;5.50;;;;;;;-1.19;94.10;95220.47;108647;1273;22520;-75
2023/11/26 02:31:06;;;;;;;8.10;4.30;;;;;;;-1.19;94.05;95224.69;108654;1274;22526;-75
2023/11/26 02:33:36;;;;;;;14.70;9.20;;;;;;;-1.21;94.00;95221.66;108607;1274;22574;-75
2023/11/26 02:36:07;;;;;;;13.20;6.50;;;;;;;-1.21;94.54;95224.71;108655;1263;22568;-75
2023/11/26 02:38:35;;;;;;;12.90;5.90;;;;;;;-1.21;94.41;95216.70;108641;1275;22691;-75
2023/11/26 02:41:04;;;;;;;14.20;9.50;;;;;;;-1.22;94.91;95218.93;108611;1269;22745;-75
2023/11/26 02:43:33;;;;;;;14.80;6.20;;;;;;;-1.23;94.72;95216.99;108677;1275;25721;-76
2023/11/26 02:46:01;;;;;;;10.20;5.90;;;;;;;-1.23;94.83;95221.25;108674;1268;22547;-75
2023/11/26 02:48:29;;;;;;;8.50;5.70;;;;;;;-1.24;94.69;95226.18;108612;1274;22506;-75
2023/11/26 02:50:57;;;;;;;15.40;9.80;;;;;;;-1.23;94.75;95226.81;108612;1273;22887;-76
2023/11/26 02:53:25;;;;;;;14.00;9.40;;;;;;;-1.24;95.05;95228.63;108653;1274;25362;-75
2023/11/26 02:55:54;;;;;;;12.70;8.70;;;;;;;-1.24;94.80;95227.75;108631;1270;22523;-75
2023/11/26 02:58:22;;;;;;;15.80;10.00;;;;;;;-1.23;95.03;95238.93;108593;1275;25294;-75
2023/11/26 03:00:51;;;;;;;9.60;6.80;;;;;;;-1.24;95.13;95239.02;108659;1274;23329;-76
2023/11/26 03:03:19;;;;;;;10.90;6.30;;;;;;;-1.26;94.68;95244.95;108652;1274;25399;-76
2023/11/26 03:05:50;;;;;;;9.80;5.70;;;;;;;-1.30;94.53;95253.32;108639;1273;24245;-75
2023/11/26 03:08:21;;;;;;;8.50;5.40;;;;;;;-1.38;94.42;95259.04;108495;1274;168525;-75
2023/11/26 03:13:37;;;;;;;10.50;6.10;;;;;;;-1.38;94.50;95263.92;108647;1274;22527;-75
2023/11/26 03:16:08;;;;;;;9.50;6.10;;;;;;;-1.37;94.49;95266.84;108608;1273;22533;-75
2023/11/26 03:18:36;;;;;;;9.30;5.20;;;;;;;-1.39;94.58;95263.59;108637;1274;22551;-75
2023/11/26 03:21:05;;;;;;;8.80;6.10;;;;;;;-1.40;94.53;95275.89;108646;1267;22545;-75
2023/11/26 03:23:33;;;;;;;11.40;6.30;;;;;;;-1.41;94.67;95276.69;108647;1274;23242;-75
2023/11/26 03:26:02;;;;;;;8.40;5.10;;;;;;;-1.41;94.66;95283.92;108656;1268;22586;-75
2023/11/26 03:28:30;;;;;;;6.60;3.90;;;;;;;-1.46;94.67;95279.95;108605;1268;22554;-75
2023/11/26 03:30:58;;;;;;;6.10;4.00;;;;;;;-1.57;94.42;95288.14;108634;1274;22535;-75
2023/11/26 03:33:27;;;;;;;5.80;3.80;;;;;;;-1.66;94.61;95290.38;108617;1268;22589;-75
2023/11/26 03:35:55;;;;;;;5.50;3.90;;;;;;;-1.73;94.59;95287.65;108625;1267;22540;-75
2023/11/26 03:38:24;;;;;;;4.80;3.10;;;;;;;-1.80;94.67;95295.95;108604;1274;22563;-75
2023/11/26 03:40:53;;;;;;;;;;;;;;;-1.85;94.90;95297.56;108619;1267;22735;-75
2023/11/26 03:43:22;;;;;;;5.80;3.40;;;;;;;-1.90;94.95;95305.74;108653;1268;22553;-75
2023/11/26 03:45:51;;;;;;;3.50;2.40;;;;;;;-1.90;95.06;95304.75;108609;1271;22592;-75
2023/11/26 03:48:20;;;;;;;4.70;2.80;;;;;;;-1.92;94.81;95307.47;108626;1274;22524;-75
2023/11/26 03:50:48;;;;;;;4.40;2.90;;;;;;;-1.95;94.66;95313.02;108612;1274;24787;-75
2023/11/26 03:53:17;;;;;;;6.20;3.00;;;;;;;-1.96;94.56;95311.45;108657;1275;24308;-75
2023/11/26 03:55:45;;;;;;;4.00;3.20;;;;;;;-1.96;94.78;95316.08;108638;1268;22517;-75
2023/11/26 03:58:14;;;;;;;6.20;3.40;;;;;;;-1.93;94.59;95312.91;108593;1274;22478;-75
2023/11/26 04:00:42;;;;;;;2.90;2.30;;;;;;;-1.92;94.79;95316.15;108674;1269;24238;-75
2023/11/26 04:03:10;;;;;;;3.00;2.20;;;;;;;-1.93;94.54;95317.89;108665;1269;22607;-76
2023/11/26 04:05:39;;;;;;;4.20;2.90;;;;;;;-1.93;94.61;95325.48;108567;1274;23603;-75
2023/11/26 04:08:07;;;;;;;3.80;2.20;;;;;;;-1.92;94.78;95330.38;108632;1274;22570;-76
2023/11/26 04:10:36;;;;;;;4.10;1.70;;;;;;;-1.92;94.78;95336.88;108658;1274;22516;-76
2023/11/26 04:13:05;;;;;;;3.30;2.50;;;;;;;-1.95;94.60;95331.36;108605;1269;25494;-75
2023/11/26 04:15:33;;;;;;;4.50;3.10;;;;;;;-1.99;94.50;95336.50;108596;1266;22575;-75
2023/11/26 04:18:02;;;;;;;5.50;3.10;;;;;;;-2.00;94.58;95343.35;108636;1268;22520;-75
2023/11/26 04:20:30;;;;;;;4.20;3.10;;;;;;;-2.01;94.44;95340.98;108679;1266;22568;-75
2023/11/26 04:22:59;;;;;;;5.90;3.50;;;;;;;-2.03;94.31;95341.63;108621;1268;22508;-75
2023/11/26 04:25:27;;;;;;;3.50;2.80;;;;;;;-2.03;94.34;95349.27;108622;1269;24381;-75
2023/11/26 04:27:56;;;;;;;3.90;2.90;;;;;;;-2.02;94.25;95347.10;108633;1275;22521;-75
2023/11/26 04:30:24;;;;;;;3.70;2.70;;;;;;;-2.04;94.06;95349.77;108632;1274;24284;-75
2023/11/26 04:32:55;;;;;;;3.60;2.20;;;;;;;-2.06;94.19;95352.91;108658;1274;22530;-75
2023/11/26 04:35:24;;;;;;;5.50;3.10;;;;;;;-2.07;94.05;95354.77;108622;1274;22521;-75
2023/11/26 04:37:53;;;;;;;6.10;3.50;;;;;;;-2.09;94.15;95361.63;108619;1274;23861;-76
2023/11/26 04:40:21;;;;;;;6.40;3.20;;;;;;;-2.08;94.03;95371.61;108656;1275;22484;-75
2023/11/26 04:42:49;;;;;;;6.80;3.20;;;;;;;-2.08;94.16;95371.30;108676;1274;22740;-75
2023/11/26 04:45:18;;;;;;;5.30;3.70;;;;;;;-2.14;94.23;95373.86;108673;1268;25326;-75
2023/11/26 04:47:47;;;;;;;3.90;2.60;;;;;;;-2.15;93.94;95372.77;108571;1275;22940;-75
2023/11/26 04:50:15;;;;;;;4.90;3.30;;;;;;;-2.15;93.92;95379.52;108621;1268;22621;-75
2023/11/26 04:52:44;;;;;;;4.20;3.00;;;;;;;-2.15;93.78;95383.70;108629;1274;22524;-75
2023/11/26 04:55:12;;;;;;;6.30;4.00;;;;;;;-2.16;93.93;95390.35;108618;1275;21755;-75
2023/11/26 04:57:40;;;;;;;6.40;3.90;;;;;;;-2.13;93.89;95401.39;108619;1274;22648;-75
2023/11/26 05:00:11;;;;;;;6.20;4.20;;;;;;;-2.11;93.79;95404.63;108631;1268;23861;-75
2023/11/26 05:02:42;;;;;;;6.80;4.10;;;;;;;-2.10;93.92;95413.59;108652;1270;22524;-75
2023/11/26 05:05:11;;;;;;;6.40;3.80;;;;;;;-2.10;93.97;95415.50;108633;1262;24222;-75
2023/11/26 05:07:40;;;;;;;7.20;4.00;;;;;;;-2.08;93.71;95428.06;108611;1269;22564;-75
2023/11/26 05:10:10;;;;;;;9.90;3.30;;;;;;;-2.07;93.90;95431.60;108677;1268;25310;-75
2023/11/26 05:12:39;;;;;;;7.60;4.30;;;;;;;-2.09;93.58;95430.79;108645;1268;22635;-75
2023/11/26 05:15:10;;;;;;;7.20;4.30;;;;;;;-2.10;93.78;95436.98;108614;1274;22539;-75
2023/11/26 05:17:39;;;;;;;8.20;3.90;;;;;;;-2.11;93.69;95435.16;108631;1270;25285;-75
2023/11/26 05:20:13;;;;;;;6.60;4.00;;;;;;;-2.13;93.42;95434.90;108644;1268;22533;-75
2023/11/26 05:22:41;;;;;;;5.50;3.80;;;;;;;-2.11;93.72;95438.00;108635;1274;22535;-75
2023/11/26 05:25:10;;;;;;;5.60;4.10;;;;;;;-2.12;93.53;95438.80;108664;1274;22565;-75
2023/11/26 05:27:38;;;;;;;8.10;3.80;;;;;;;-2.12;93.92;95441.88;108637;1274;24225;-75
2023/11/26 05:30:09;;;;;;;4.60;3.40;;;;;;;-2.12;93.66;95448.63;108648;1274;22665;-75
2023/11/26 05:32:38;;;;;;;5.70;3.00;;;;;;;-2.13;93.92;95451.46;108658;1275;22548;-75
2023/11/26 05:35:12;;;;;;;6.80;3.90;;;;;;;-2.19;93.55;95454.45;108599;1268;21773;-75
2023/11/26 05:37:40;;;;;;;6.30;4.00;;;;;;;-2.22;93.80;95457.72;108623;1267;22567;-75
2023/11/26 05:40:12;;;;;;;6.60;4.00;;;;;;;-2.21;93.91;95459.39;108617;1274;25295;-75
2023/11/26 05:42:40;;;;;;;6.70;3.80;;;;;;;-2.22;93.78;95463.80;108667;1274;22535;-75
2023/11/26 05:45:11;;;;;;;6.30;4.50;;;;;;;-2.23;93.65;95468.65;108622;1274;22691;-75
2023/11/26 05:47:39;;;;;;;6.50;3.70;;;;;;;-2.24;93.75;95478.70;108675;1274;22600;-75
2023/11/26 05:50:10;;;;;;;6.60;4.10;;;;;;;-2.23;93.64;95483.87;108661;1266;22545;-75
2023/11/26 05:52:39;;;;;;;8.00;4.20;;;;;;;-2.22;93.50;95486.94;108629;1274;24200;-75
2023/11/26 05:55:08;;;;;;;6.20;4.20;;;;;;;-2.22;93.46;95490.36;108650;1269;22939;-75
2023/11/26 05:57:37;;;;;;;6.90;4.60;;;;;;;-2.22;93.35;95495.88;108649;1274;22754;-75
2023/11/26 06:00:08;;;;;;;8.40;4.20;;;;;;;-2.23;93.30;95503.39;108637;1267;24266;-75
2023/11/26 06:02:36;;;;;;;7.60;5.40;;;;;;;-2.23;93.33;95505.45;108672;1274;24249;-75
2023/11/26 06:05:07;;;;;;;6.20;4.60;;;;;;;-2.26;93.22;95514.05;108667;1274;25351;-75
2023/11/26 06:07:35;;;;;;;6.50;4.60;;;;;;;-2.29;93.01;95515.02;108686;1268;22536;-75
2023/11/26 06:10:05;;;;;;;7.00;4.70;;;;;;;-2.33;93.00;95522.48;108636;1274;24697;-75
2023/11/26 06:12:34;;;;;;;5.10;3.10;;;;;;;-2.36;93.21;95524.05;108709;1268;25236;-75
2023/11/26 06:15:03;;;;;;;6.90;3.50;;;;;;;-2.39;93.18;95528.27;108650;1275;25378;-75
2023/11/26 06:17:31;;;;;;;7.40;4.70;;;;;;;-2.42;93.10;95535.25;108632;1274;22523;-75
2023/11/26 06:20:00;;;;;;;8.50;5.30;;;;;;;-2.43;92.99;95538.15;108628;1275;22534;-75
2023/11/26 06:22:30;;;;;;;8.00;5.30;;;;;;;-2.40;93.13;95536.91;108644;1274;22526;-75
2023/11/26 06:24:59;;;;;;;7.20;4.90;;;;;;;-2.39;93.02;95539.73;108648;1274;22683;-75
2023/11/26 06:27:27;;;;;;;8.20;4.90;;;;;;;-2.38;93.12;95540.66;108682;1274;25500;-75
2023/11/26 06:29:56;;;;;;;8.60;5.50;;;;;;;-2.37;92.87;95548.73;108678;1267;25245;-75
2023/11/26 06:32:24;;;;;;;7.30;4.70;;;;;;;-2.35;93.09;95555.10;108642;1272;22565;-75
2023/11/26 06:34:53;;;;;;;9.50;6.00;;;;;;;-2.38;92.91;95552.23;108613;1271;24299;-75
2023/11/26 06:37:21;;;;;;;11.10;6.10;;;;;;;-2.42;92.79;95551.46;108571;1274;22524;-75
2023/11/26 06:39:50;;;;;;;8.80;5.90;;;;;;;-2.41;92.97;95553.60;108646;1268;22650;-75
2023/11/26 06:42:18;;;;;;;10.40;5.40;;;;;;;-2.43;92.83;95555.23;108648;1274;22577;-75
2023/11/26 06:44:48;;;;;;;8.30;5.70;;;;;;;-2.44;92.75;95561.44;108615;1272;22564;-75
2023/11/26 06:47:16;;;;;;;6.70;4.70;;;;;;;-2.43;92.66;95561.50;108620;1274;26350;-75
2023/11/26 06:49:45;;;;;;;6.80;4.20;;;;;;;-2.41;92.71;95562.11;108699;1274;22583;-75
2023/11/26 06:52:14;;;;;;;6.60;4.80;;;;;;;-2.39;92.23;95566.90;108627;1275;22523;-75
2023/11/26 06:54:42;;;;;;;7.00;4.00;;;;;;;-2.37;91.82;95566.59;108643;1274;22634;-75
2023/11/26 06:57:13;;;;;;;7.40;4.30;;;;;;;-2.36;91.80;95577.40;108543;1275;23051;-75
2023/11/26 06:59:42;;;;;;;6.90;4.20;;;;;;;-2.36;91.60;95580.72;108647;1269;22732;-75
2023/11/26 07:02:10;;;;;;;6.00;4.40;;;;;;;-2.36;91.42;95580.59;108614;1274;25269;-75
2023/11/26 07:04:39;;;;;;;6.40;3.70;;;;;;;-2.36;91.45;95581.30;108625;1274;22524;-76
2023/11/26 07:07:07;;;;;;;6.60;3.80;;;;;;;-2.33;91.28;95576.48;108636;1274;24276;-75
2023/11/26 07:09:36;;;;;;;6.40;3.90;;;;;;;-2.29;91.32;95585.39;108658;1274;22527;-75
2023/11/26 07:12:06;;;;;;;6.80;4.60;;;;;;;-2.30;90.75;95589.75;108683;1272;22483;-75
2023/11/26 07:14:34;;;;;;;6.70;4.80;;;;;;;-2.26;90.96;95585.42;108659;1272;22612;-75
2023/11/26 07:17:03;;;;;;;5.30;3.90;;;;;;;-2.23;90.84;95588.38;108664;1274;22522;-76
2023/11/26 07:19:32;;;;;;;6.80;4.40;;;;;;;-2.20;90.86;95588.60;108639;1267;22519;-75
2023/11/26 07:22:02;;;;;;;6.70;3.50;;;;;;;-2.20;90.52;95590.56;108661;1274;24213;-75
2023/11/26 07:24:31;;;;;;;7.80;3.90;;;;;;;-2.21;90.59;95588.50;108662;1272;24276;-76
2023/11/26 07:27:02;;;;;;;7.20;3.90;;;;;;;-2.30;90.39;95594.50;108666;1274;25253;-76
2023/11/26 07:29:34;;;;;;;7.20;3.80;;;;;;;-2.28;90.55;95593.88;108641;1269;22562;-76
2023/11/26 07:32:03;;;;;;;7.70;4.70;;;;;;;-2.29;90.43;95602.27;108649;1274;22702;-75
2023/11/26 07:34:32;;;;;;;8.60;4.90;;;;;;;-2.31;90.40;95596.99;108601;1269;22542;-75
2023/11/26 07:37:00;;;;;;;9.50;5.20;;;;;;;-2.33;90.59;95604.27;108611;1275;23309;-75
2023/11/26 07:39:29;;;;;;;8.80;6.10;;;;;;;-2.40;90.21;95612.17;108629;1274;22521;-75
2023/11/26 07:41:58;;;;;;;10.30;5.90;;;;;;;-2.41;90.59;95612.51;108663;1267;25288;-76
2023/11/26 07:44:26;;;;;;;8.50;4.50;;;;;;;-2.39;90.39;95606.55;108647;1274;22543;-76
2023/11/26 07:46:57;;;;;;;5.90;4.00;;;;;;;-2.44;90.24;95614.05;108593;1274;22648;-76
2023/11/26 07:49:25;;;;;;;8.50;4.80;;;;;;;-2.44;90.46;95620.54;108636;1274;22515;-76
2023/11/26 07:51:53;;;;;;;10.50;5.80;;;;;;;-2.46;90.25;95623.23;108667;1270;22542;-75
2023/11/26 07:54:22;;;;;;;8.60;5.90;;;;;;;-2.43;90.41;95627.42;108614;1270;21760;-75
2023/11/26 07:56:50;;;;;;;8.60;5.70;;;;;;;-2.40;90.52;95627.07;108621;1269;25276;-75
2023/11/26 07:59:19;;;;;;;15.50;9.50;;;;;;;-2.37;90.35;95630.52;108699;1266;21788;-75
2023/11/26 08:01:52;;;;;;;10.90;6.00;;;;;;;-2.38;90.25;95634.80;108645;1270;26445;-75
2023/11/26 08:04:21;;;;;;;8.30;5.40;;;;;;;-2.41;90.28;95634.05;108642;1269;25363;-75
2023/11/26 08:06:49;;;;;;;;;;;;;;;-2.45;90.14;95634.88;108680;1273;26498;-75
2023/11/26 08:09:17;;;;;;;9.60;5.70;;;;;;;-2.45;90.37;95637.75;108612;1273;22610;-75
2023/11/26 08:11:47;;;;;;;9.40;6.00;;;;;;;-2.38;90.35;95641.87;108652;1273;22541;-75
2023/11/26 08:14:14;;;;;;;;;;;;;;;-2.33;90.07;95643.39;108654;1273;22498;-75
2023/11/26 08:16:44;;;;;;;8.70;5.00;;;;;;;-2.40;89.94;95644.52;108676;1273;22524;-75
2023/11/26 08:19:13;;;;;;;10.50;6.30;;;;;;;-2.45;89.86;95648.02;108697;1273;22572;-76
2023/11/26 08:21:41;;;;;;;8.60;5.10;;;;;;;-2.40;89.93;95648.50;108649;1273;22521;-76
2023/11/26 08:24:15;;;;;;;9.00;5.40;;;;;;;-2.37;89.81;95650.25;108665;1273;24185;-75
2023/11/26 08:26:46;;;;;;;9.60;6.30;;;;;;;-2.50;89.32;95649.05;108745;1274;22555;-75
2023/11/26 08:29:18;;;;;;;13.90;7.20;;;;;;;-2.49;89.53;95651.75;108561;1274;22540;-75
2023/11/26 08:31:47;;;;;;;9.30;5.90;;;;;;;-2.46;89.54;95659.25;108724;1274;25420;-75
2023/11/26 08:34:16;;;;;;;9.80;5.70;;;;;;;-2.48;89.27;95659.88;108613;1270;22520;-75
2023/11/26 08:36:45;;;;;;;10.70;4.00;;;;;;;-2.52;89.19;95661.77;108608;1272;22536;-75
2023/11/26 08:39:19;;;;;;;8.80;4.00;;;;;;;-2.59;88.64;95665.56;108631;1274;22524;-75
2023/11/26 08:41:50;;;;;;;10.90;6.90;;;;;;;-2.57;88.77;95665.44;108620;1270;22523;-75
2023/11/26 08:44:18;;;;;;;9.20;6.60;;;;;;;-2.50;88.86;95660.87;108668;1274;23492;-75
2023/11/26 08:46:47;;;;;;;17.50;9.50;;;;;;;-2.41;88.88;95662.14;108644;1274;22545;-75
2023/11/26 08:49:20;;;;;;;21.90;12.10;;;;;;;-2.30;89.04;95663.30;108630;1275;24142;-76
2023/11/26 08:51:49;;;;;;;10.60;6.10;;;;;;;-2.24;88.88;95659.36;108617;1274;24216;-75
2023/11/26 08:54:20;;;;;;;12.10;6.60;;;;;;;-2.26;88.13;95663.45;108612;1269;22543;-75
2023/11/26 08:56:50;;;;;;;17.60;6.90;;;;;;;-2.27;87.78;95667.22;108620;1266;23824;-75
2023/11/26 08:59:18;;;;;;;9.00;4.90;;;;;;;-2.29;87.03;95661.34;108680;1256;22537;-75
2023/11/26 09:01:47;;;;;;;17.40;8.80;;;;;;;-2.24;87.40;95661.18;108632;1271;22650;-76
2023/11/26 09:04:15;;;;;;;16.10;8.60;;;;;;;-2.14;87.15;95654.48;108686;1273;22581;-76
2023/11/26 09:06:44;;;;;;;9.10;5.10;;;;;;;-2.14;86.89;95662.98;108731;1273;24456;-76
2023/11/26 09:09:12;;;;;;;17.70;7.70;;;;;;;-2.09;86.73;95671.17;108738;1273;22660;-76
2023/11/26 09:11:40;;;;;;;4.40;2.70;;;;;;;-2.10;85.84;95672.90;108785;1273;21792;-76
2023/11/26 09:14:09;;;;;;;8.20;5.00;;;;;;;-2.09;85.87;95678.53;108721;1267;24213;-76
2023/11/26 09:16:37;;;;;;;10.60;6.20;;;;;;;-1.93;86.45;95674.38;108652;1270;22528;-76
2023/11/26 09:19:06;;;;;;;6.70;4.50;;;;;;;-1.87;86.01;95676.13;108640;1273;23443;-75
2023/11/26 09:21:34;;;;;;;11.30;6.50;;;;;;;-1.72;86.16;95678.77;108667;1272;22542;-75
2023/11/26 09:24:03;;;;;;;7.50;4.50;;;;;;;-1.62;85.96;95672.94;108703;1273;25347;-75
2023/11/26 09:26:32;;;;;;;4.90;4.10;;;;;;;-1.63;85.52;95675.44;108600;1273;23855;-76
2023/11/26 09:29:00;;;;;;;8.20;4.00;;;;;;;-1.56;85.41;95668.64;108662;1256;24226;-76
2023/11/26 09:31:28;;;;;;;8.90;5.70;;;;;;;-1.57;85.24;95674.40;108675;1266;22632;-76
2023/11/26 09:33:56;;;;;;;6.50;4.50;;;;;;;-1.51;85.38;95670.95;108665;1269;22784;-75
2023/11/26 09:36:25;;;;;;;3.60;2.80;;;;;;;-1.42;84.92;95668.08;108686;1273;22722;-75
2023/11/26 09:38:54;;;;;;;5.60;3.70;;;;;;;-1.44;84.42;95663.00;108717;1266;25348;-75
2023/11/26 09:41:22;;;;;;;7.10;4.80;;;;;;;-1.59;82.70;95663.19;108621;1268;25369;-75
2023/11/26 09:43:51;;;;;;;7.10;4.40;;;;;;;-1.70;83.04;95667.43;108657;1273;22636;-75
2023/11/26 09:46:21;;;;;;;4.40;2.20;;;;;;;-1.60;83.62;95669.60;108665;1273;22520;-75
2023/11/26 09:48:49;;;;;;;5.10;3.30;;;;;;;-1.55;82.41;95668.52;108630;1269;22530;-75
2023/11/26 09:51:21;;;;;;;6.10;2.50;;;;;;;-1.70;81.89;95676.53;108687;1273;22644;-75
2023/11/26 09:53:51;;;;;;;7.20;4.40;;;;;;;-1.76;81.55;95666.01;108638;1273;22941;-75
2023/11/26 09:56:20;;;;;;;9.00;4.00;;;;;;;-1.75;81.51;95660.35;108653;1269;22532;-75
2023/11/26 09:58:48;;;;;;;9.00;5.10;;;;;;;-1.90;80.24;95687.32;108629;1272;25262;-75
2023/11/26 10:01:17;;;;;;;9.10;4.30;;;;;;;-1.86;81.66;95682.05;108672;1273;22527;-75
2023/11/26 10:03:59;;;;;;;6.90;4.10;;;;;;;-1.79;81.46;95687.95;108646;1273;22531;-75
2023/11/26 10:06:29;;;;;;;9.50;5.20;;;;;;;-1.96;79.79;95692.15;108658;1273;22528;-76
2023/11/26 10:08:59;;;;;;;8.80;4.80;;;;;;;-1.97;81.29;95692.96;108666;1273;22556;-76
2023/11/26 10:11:28;;;;;;;7.10;3.80;;;;;;;-1.89;81.27;95696.92;108664;1266;22993;-76
2023/11/26 10:13:56;;;;;;;;;;;;;;;-1.96;80.84;95701.27;108670;1273;22509;-76
2023/11/26 10:16:33;;;;;;;6.50;4.50;;;;;;;-1.98;81.05;95701.61;108651;1273;22524;-76
2023/11/26 10:19:03;;;;;;;8.10;5.00;;;;;;;-1.96;81.22;95700.36;108701;1273;22991;-76
2023/11/26 10:21:32;;;;;;;9.20;5.30;;;;;;;-1.88;81.45;95700.67;108693;1273;22955;-76
2023/11/26 10:24:00;;;;;;;;;;;;;;;-1.85;81.61;95707.09;108662;1273;25415;-76
2023/11/26 10:26:31;;;;;;;;;;;;;;;-1.80;80.84;95699.11;108675;1273;22519;-76
2023/11/26 10:29:02;;;;;;;7.50;4.00;;;;;;;-1.93;79.82;95701.31;108664;1273;25275;-76
2023/11/26 10:31:31;;;;;;;6.90;4.90;;;;;;;-1.98;80.12;95717.31;108624;1267;22568;-76
2023/11/26 10:34:13;;;;;;;7.60;4.70;;;;;;;-1.78;80.76;95713.48;108634;1273;25460;-76
2023/11/26 10:36:42;;;;;;;8.50;5.50;;;;;;;-1.79;79.95;95713.10;108693;1272;22524;-76
2023/11/26 10:39:11;;;;;;;9.90;5.30;;;;;;;-1.83;80.02;95724.30;108688;1273;24313;-76
2023/11/26 10:41:39;;;;;;;;;;;;;;;-1.83;79.86;95723.86;108722;1266;22612;-76
2023/11/26 10:44:10;;;;;;;7.30;3.30;;;;;;;-1.80;80.04;95731.27;108655;1265;22527;-76
2023/11/26 10:46:44;;;;;;;9.20;5.60;;;;;;;-1.80;80.02;95729.51;108629;1273;22549;-77
2023/11/26 10:49:17;;;;;;;9.90;5.60;;;;;;;-1.79;80.20;95730.73;108643;1273;22538;-76
2023/11/26 10:51:58;;;;;;;8.70;5.00;;;;;;;-1.78;80.22;95735.15;108658;1273;22726;-76
2023/11/26 10:54:35;;;;;;;9.70;6.10;;;;;;;-1.77;80.29;95734.41;108655;1266;22533;-76
2023/11/26 10:57:13;;;;;;;10.70;6.30;;;;;;;-1.71;80.47;95737.80;108626;1269;25405;-76
2023/11/26 10:59:48;;;;;;;9.80;6.00;;;;;;;-1.74;80.47;95735.15;108683;1273;22550;-76
2023/11/26 11:02:18;;;;;;;10.50;6.30;;;;;;;-1.74;80.51;95741.91;108677;1272;22611;-76
2023/11/26 11:04:47;;;;;;;7.90;5.20;;;;;;;-1.73;80.86;95734.27;108675;1272;22564;-76
2023/11/26 11:07:16;;;;;;;7.00;3.70;;;;;;;-1.72;81.07;95731.77;108699;1272;22618;-76
2023/11/26 11:09:53;;;;;;;7.90;5.20;;;;;;;-1.83;80.17;95732.52;108630;1267;24397;-76
2023/11/26 11:12:34;;;;;;;10.50;5.60;;;;;;;-1.91;80.23;95729.38;108671;1273;22525;-76
2023/11/26 11:15:03;;;;;;;9.10;5.20;;;;;;;-1.96;80.69;95737.21;108661;1273;22520;-76
2023/11/26 11:17:34;;;;;;;9.70;4.70;;;;;;;-1.87;81.02;95733.63;108610;1273;22530;-76
2023/11/26 11:20:04;;;;;;;8.90;4.40;;;;;;;-1.83;80.87;95734.25;108689;1273;24212;-76
2023/11/26 11:22:36;;;;;;;10.50;5.20;;;;;;;-1.86;80.58;95737.08;108716;1267;25550;-76
2023/11/26 11:25:10;;;;;;;8.70;5.00;;;;;;;-1.85;81.24;95728.91;108710;1271;22528;-76
2023/11/26 11:27:54;;;;;;;7.30;5.00;;;;;;;-1.76;81.08;95736.44;108722;1273;22536;-76
2023/11/26 11:30:55;;;;;;;10.60;5.10;;;;;;;-1.70;81.08;95739.02;108707;1273;22518;-76
2023/11/26 11:33:24;;;;;;;9.60;6.00;;;;;;;-1.59;81.51;95737.70;108670;1273;24253;-76
2023/11/26 11:35:55;;;;;;;8.90;5.20;;;;;;;-1.47;81.30;95736.91;108671;1273;25310;-76
2023/11/26 11:38:26;;;;;;;6.50;3.50;;;;;;;-1.43;81.03;95738.13;108652;1272;22521;-76